createdAt,value
2023-03-18T00:01:16.362Z,95601.52
2023-03-18T00:03:43.497Z,95603.91
2023-03-18T00:06:16.768Z,95603.77
2023-03-18T00:08:45.423Z,95601.35
2023-03-18T00:11:14.345Z,95598.42
2023-03-18T00:13:42.463Z,95593.98
2023-03-18T00:16:11.547Z,95594.02
2023-03-18T00:18:39.556Z,95592.02
2023-03-18T00:21:06.564Z,95587.42
2023-03-18T00:23:34.372Z,95585.77
2023-03-18T00:26:02.526Z,95585.02
2023-03-18T00:28:31.499Z,95582.50
2023-03-18T00:31:08.805Z,95581.82
2023-03-18T00:33:38.121Z,95577.97
2023-03-18T00:36:07.184Z,95575.34
2023-03-18T00:38:35.684Z,95573.31
2023-03-18T00:41:11.245Z,95572.45
2023-03-18T00:43:47.083Z,95569.48
2023-03-18T00:46:20.802Z,95563.17
2023-03-18T00:48:48.180Z,95559.56
2023-03-18T00:51:17.364Z,95555.10
2023-03-18T00:53:47.359Z,95554.73
2023-03-18T00:56:15.941Z,95550.19
2023-03-18T00:58:42.853Z,95545.79
2023-03-18T01:01:10.281Z,95544.92
2023-03-18T01:03:37.175Z,95538.64
2023-03-18T01:06:04.313Z,95540.01
2023-03-18T01:08:31.999Z,95540.81
2023-03-18T01:10:59.533Z,95538.61
2023-03-18T01:13:26.314Z,95536.84
2023-03-18T01:15:54.517Z,95535.57
2023-03-18T01:18:21.941Z,95532.33
2023-03-18T01:20:48.833Z,95530.80
2023-03-18T01:23:16.496Z,95535.52
2023-03-18T01:25:45.132Z,95531.13
2023-03-18T01:28:14.893Z,95528.08
2023-03-18T01:30:42.328Z,95529.83
2023-03-18T01:33:09.959Z,95527.77
2023-03-18T01:35:37.523Z,95528.52
2023-03-18T01:38:05.996Z,95526.66
2023-03-18T01:40:35.972Z,95524.24
2023-03-18T01:43:25.231Z,95523.79
2023-03-18T01:45:55.133Z,95521.58
2023-03-18T01:48:28.620Z,95525.07
2023-03-18T01:51:05.952Z,95526.73
2023-03-18T01:53:41.993Z,95527.14
2023-03-18T01:56:09.203Z,95520.79
2023-03-18T01:58:43.271Z,95520.40
2023-03-18T02:01:34.826Z,95514.29
2023-03-18T02:04:06.305Z,95512.73
2023-03-18T02:06:33.549Z,95514.48
2023-03-18T02:09:01.621Z,95507.16
2023-03-18T02:11:32.735Z,95510.52
2023-03-18T02:14:01.198Z,95507.42
2023-03-18T02:16:36.958Z,95508.43
2023-03-18T02:19:26.335Z,95509.79
2023-03-18T02:22:02.420Z,95507.44
2023-03-18T02:24:32.629Z,95510.39
2023-03-18T02:27:05.882Z,95506.92
2023-03-18T02:29:40.374Z,95509.73
2023-03-18T02:32:13.143Z,95510.66
2023-03-18T02:34:42.219Z,95511.41
2023-03-18T02:37:09.300Z,95505.95
2023-03-18T02:39:37.218Z,95507.52
2023-03-18T02:42:04.306Z,95509.30
2023-03-18T02:44:31.773Z,95507.15
2023-03-18T02:47:22.878Z,95507.95
2023-03-18T02:49:50.126Z,95506.04
2023-03-18T02:52:16.962Z,95507.07
2023-03-18T02:54:44.104Z,95504.40
2023-03-18T02:57:10.974Z,95505.94
2023-03-18T02:59:38.936Z,95504.55
2023-03-18T03:02:06.574Z,95507.75
2023-03-18T03:04:33.511Z,95505.25
2023-03-18T03:07:01.636Z,95509.93
2023-03-18T03:09:42.293Z,95508.32
2023-03-18T03:12:09.347Z,95508.53
2023-03-18T03:14:40.790Z,95510.98
2023-03-18T03:17:07.584Z,95511.80
2023-03-18T03:19:34.322Z,95512.19
2023-03-18T03:22:01.604Z,95514.30
2023-03-18T03:24:28.543Z,95515.63
2023-03-18T03:26:55.275Z,95517.41
2023-03-18T03:29:22.048Z,95521.52
2023-03-18T03:31:49.479Z,95523.63
2023-03-18T03:34:16.220Z,95524.95
2023-03-18T03:36:43.185Z,95524.17
2023-03-18T03:39:10.756Z,95522.86
2023-03-18T03:41:37.538Z,95524.27
2023-03-18T03:44:04.883Z,95525.52
2023-03-18T03:46:32.207Z,95529.25
2023-03-18T03:48:59.488Z,95528.51
2023-03-18T03:51:26.321Z,95529.88
2023-03-18T03:53:53.252Z,95529.24
2023-03-18T03:56:20.070Z,95532.14
2023-03-18T03:58:46.962Z,95532.58
2023-03-18T04:01:14.068Z,95531.17
2023-03-18T04:03:41.587Z,95532.36
2023-03-18T04:06:08.625Z,95533.35
2023-03-18T04:08:38.120Z,95531.48
2023-03-18T04:11:05.567Z,95531.64
2023-03-18T04:13:32.548Z,95534.66
2023-03-18T04:15:59.470Z,95539.40
2023-03-18T04:18:26.820Z,95545.86
2023-03-18T04:20:54.248Z,95543.85
2023-03-18T04:23:35.733Z,95549.19
2023-03-18T04:26:02.816Z,95555.33
2023-03-18T04:28:30.293Z,95556.30
2023-03-18T04:30:57.355Z,95557.31
2023-03-18T04:33:24.548Z,95562.69
2023-03-18T04:35:52.737Z,95565.95
2023-03-18T04:38:20.575Z,95566.61
2023-03-18T04:40:49.319Z,95569.83
2023-03-18T04:43:17.310Z,95569.38
2023-03-18T04:45:45.690Z,95571.06
2023-03-18T04:48:12.859Z,95570.44
2023-03-18T04:50:41.104Z,95573.90
2023-03-18T04:53:10.389Z,95575.54
2023-03-18T04:55:37.936Z,95576.11
2023-03-18T04:58:06.794Z,95578.66
2023-03-18T05:00:38.169Z,95582.04
2023-03-18T05:03:31.183Z,95582.27
2023-03-18T05:05:58.280Z,95587.38
2023-03-18T05:08:31.964Z,95583.27
2023-03-18T05:11:00.228Z,95577.06
2023-03-18T05:13:27.573Z,95573.42
2023-03-18T05:15:54.998Z,95573.70
2023-03-18T05:18:21.951Z,95574.70
2023-03-18T05:20:49.876Z,95572.67
2023-03-18T05:23:17.573Z,95570.63
2023-03-18T05:25:50.457Z,95569.16
2023-03-18T05:28:18.381Z,95568.43
2023-03-18T05:30:52.493Z,95566.98
2023-03-18T05:33:21.457Z,95562.48
2023-03-18T05:35:53.067Z,95559.77
2023-03-18T05:38:23.022Z,95563.73
2023-03-18T05:40:50.099Z,95568.29
2023-03-18T05:43:21.917Z,95566.66
2023-03-18T05:45:51.773Z,95564.45
2023-03-18T05:48:21.775Z,95569.55
2023-03-18T05:50:52.482Z,95568.23
2023-03-18T05:53:22.549Z,95573.38
2023-03-18T05:55:53.030Z,95576.30
2023-03-18T05:58:21.114Z,95577.73
2023-03-18T06:00:50.632Z,95579.27
2023-03-18T06:03:18.343Z,95585.80
2023-03-18T06:05:45.173Z,95588.41
2023-03-18T06:08:12.889Z,95588.98
2023-03-18T06:10:40.302Z,95588.59
2023-03-18T06:13:07.856Z,95586.20
2023-03-18T06:15:34.788Z,95585.81
2023-03-18T06:18:01.848Z,95590.02
2023-03-18T06:20:28.921Z,95586.70
2023-03-18T06:22:55.721Z,95587.48
2023-03-18T06:25:24.074Z,95583.83
2023-03-18T06:27:52.282Z,95585.42
2023-03-18T06:30:21.582Z,95585.11
2023-03-18T06:32:49.014Z,95585.51
2023-03-18T06:35:16.684Z,95577.96
2023-03-18T06:37:43.835Z,95572.38
2023-03-18T06:40:12.388Z,95568.20
2023-03-18T06:42:41.254Z,95560.77
2023-03-18T06:45:15.436Z,95556.56
2023-03-18T06:47:56.664Z,95557.80
2023-03-18T06:50:24.586Z,95558.27
2023-03-18T06:52:51.466Z,95559.19
2023-03-18T06:55:23.955Z,95559.92
2023-03-18T06:57:51.415Z,95560.91
2023-03-18T07:00:24.788Z,95561.38
2023-03-18T07:02:52.524Z,95558.65
2023-03-18T07:05:22.998Z,95555.45
2023-03-18T07:07:50.938Z,95551.05
2023-03-18T07:10:21.929Z,95552.91
2023-03-18T07:12:50.558Z,95554.21
2023-03-18T07:15:21.777Z,95555.57
2023-03-18T07:17:50.616Z,95555.16
2023-03-18T07:20:18.771Z,95553.05
2023-03-18T07:22:47.285Z,95549.48
2023-03-18T07:25:14.610Z,95551.55
2023-03-18T07:27:42.443Z,95553.10
2023-03-18T07:30:10.011Z,95549.66
2023-03-18T07:32:38.622Z,95550.23
2023-03-18T07:35:06.741Z,95552.42
2023-03-18T07:37:35.140Z,95556.88
2023-03-18T07:40:04.010Z,95558.00
2023-03-18T07:42:30.861Z,95563.38
2023-03-18T07:44:58.186Z,95559.38
2023-03-18T07:47:25.117Z,95554.31
2023-03-18T07:49:55.028Z,95550.23
2023-03-18T07:52:22.067Z,95552.84
2023-03-18T07:54:48.815Z,95556.81
2023-03-18T07:57:15.680Z,95557.00
2023-03-18T07:59:42.552Z,95560.71
2023-03-18T08:02:14.479Z,95560.34
2023-03-18T08:04:42.886Z,95555.39
2023-03-18T08:07:10.848Z,95551.80
2023-03-18T08:09:38.474Z,95555.29
2023-03-18T08:12:05.635Z,95549.77
2023-03-18T08:14:32.548Z,95544.91
2023-03-18T08:16:59.362Z,95549.78
2023-03-18T08:19:27.603Z,95548.55
2023-03-18T08:21:55.372Z,95552.82
2023-03-18T08:24:32.169Z,95564.42
2023-03-18T08:27:23.091Z,95564.83
2023-03-18T08:29:54.047Z,95562.52
2023-03-18T08:32:26.102Z,95560.14
2023-03-18T08:34:55.112Z,95556.92
2023-03-18T08:37:22.713Z,95554.67
2023-03-18T08:39:54.576Z,95549.60
2023-03-18T08:42:21.905Z,95549.60
2023-03-18T08:44:49.996Z,95554.41
2023-03-18T08:47:16.874Z,95553.52
2023-03-18T08:49:43.782Z,95552.98
2023-03-18T08:52:10.696Z,95550.17
2023-03-18T08:54:37.489Z,95553.89
2023-03-18T08:57:04.570Z,95552.23
2023-03-18T08:59:31.671Z,95554.34
2023-03-18T09:02:16.496Z,95556.55
2023-03-18T09:04:50.485Z,95555.80
2023-03-18T09:07:19.285Z,95555.13
2023-03-18T09:10:37.201Z,95552.98
2023-03-18T09:13:05.594Z,95550.60
2023-03-18T09:15:32.594Z,95552.12
2023-03-18T09:18:10.779Z,95551.06
2023-03-18T09:20:39.734Z,95550.66
2023-03-18T09:23:08.018Z,95554.27
2023-03-18T09:25:35.706Z,95553.42
2023-03-18T09:28:06.594Z,95556.80
2023-03-18T09:30:34.379Z,95554.50
2023-03-18T09:33:02.058Z,95553.81
2023-03-18T09:35:29.313Z,95554.81
2023-03-18T09:37:56.505Z,95555.58
2023-03-18T09:40:32.748Z,95552.55
2023-03-18T09:42:59.475Z,95549.03
2023-03-18T09:45:51.886Z,95545.44
2023-03-18T09:48:53.930Z,95547.88
2023-03-18T09:51:50.326Z,95548.25
2023-03-18T09:54:33.241Z,95549.20
2023-03-18T09:57:01.190Z,95546.35
2023-03-18T09:59:40.528Z,95547.38
2023-03-18T10:02:48.454Z,95546.18
2023-03-18T10:05:19.880Z,95547.14
2023-03-18T10:07:50.070Z,95547.23
2023-03-18T10:10:42.427Z,95546.61
2023-03-18T10:13:23.346Z,95546.57
2023-03-18T10:15:56.852Z,95545.22
2023-03-18T10:18:33.997Z,95549.23
2023-03-18T10:21:21.986Z,95548.08
2023-03-18T10:23:57.888Z,95547.20
2023-03-18T10:26:30.749Z,95544.90
2023-03-18T10:29:08.739Z,95545.45
2023-03-18T10:32:03.780Z,95542.98
2023-03-18T10:34:40.689Z,95542.33
2023-03-18T10:37:13.055Z,95540.98
2023-03-18T10:39:41.924Z,95543.89
2023-03-18T10:42:30.622Z,95538.81
2023-03-18T10:45:28.316Z,95542.16
2023-03-18T10:48:06.239Z,95529.88
2023-03-18T10:50:42.549Z,95528.52
2023-03-18T10:53:23.457Z,95525.98
2023-03-18T10:56:07.054Z,95524.89
2023-03-18T10:58:34.608Z,95533.98
2023-03-18T11:01:01.589Z,95526.61
2023-03-18T11:03:33.137Z,95528.56
2023-03-18T11:06:04.606Z,95523.89
2023-03-18T11:08:40.172Z,95530.17
2023-03-18T11:11:34.833Z,95530.02
2023-03-18T11:14:07.121Z,95531.10
2023-03-18T11:16:42.671Z,95528.77
2023-03-18T11:19:33.507Z,95533.63
2023-03-18T11:22:02.235Z,95529.77
2023-03-18T11:24:45.001Z,95529.10
2023-03-18T11:27:14.425Z,95522.21
2023-03-18T11:29:46.794Z,95524.73
2023-03-18T11:32:31.687Z,95531.00
2023-03-18T11:35:03.765Z,95517.67
2023-03-18T11:37:41.759Z,95515.66
2023-03-18T11:40:14.615Z,95511.33
2023-03-18T11:42:42.721Z,95517.67
2023-03-18T11:45:21.611Z,95521.41
2023-03-18T11:47:48.643Z,95518.70
2023-03-18T11:50:25.735Z,95516.83
2023-03-18T11:53:05.881Z,95520.80
2023-03-18T11:55:45.788Z,95522.16
2023-03-18T11:58:46.807Z,95521.77
2023-03-18T12:01:21.919Z,95516.52
2023-03-18T12:04:14.595Z,95511.65
2023-03-18T12:06:50.145Z,95521.25
2023-03-18T12:09:34.934Z,95523.27
2023-03-18T12:12:28.368Z,95520.17
2023-03-18T12:15:12.464Z,95529.25
2023-03-18T12:18:06.778Z,95523.86
2023-03-18T12:20:57.228Z,95513.96
2023-03-18T12:24:01.583Z,95507.89
2023-03-18T12:26:34.735Z,95514.13
2023-03-18T12:29:07.546Z,95514.37
2023-03-18T12:31:48.906Z,95514.58
2023-03-18T12:34:54.180Z,95506.62
2023-03-18T12:37:35.840Z,95509.28
2023-03-18T12:40:34.421Z,95506.17
2023-03-18T12:43:21.024Z,95512.31
2023-03-18T12:45:53.668Z,95502.48
2023-03-18T12:48:43.812Z,95500.18
2023-03-18T12:51:21.604Z,95497.45
2023-03-18T12:53:56.308Z,95504.31
2023-03-18T12:56:27.696Z,95509.67
2023-03-18T12:59:06.527Z,95510.09
2023-03-18T13:01:47.764Z,95502.72
2023-03-18T13:04:29.928Z,95500.16
2023-03-18T13:07:03.507Z,95495.70
2023-03-18T13:09:53.475Z,95500.98
2023-03-18T13:12:20.480Z,95503.27
2023-03-18T13:14:56.534Z,95499.34
2023-03-18T13:17:40.196Z,95495.70
2023-03-18T13:20:21.649Z,95498.95
2023-03-18T13:23:04.082Z,95502.86
2023-03-18T13:25:37.021Z,95507.58
2023-03-18T13:28:29.387Z,95508.42
2023-03-18T13:31:06.318Z,95504.33
2023-03-18T13:33:47.612Z,95494.51
2023-03-18T13:37:11.332Z,95496.98
2023-03-18T13:40:05.864Z,95497.90
2023-03-18T13:42:38.682Z,95497.23
2023-03-18T13:45:30.587Z,95498.38
2023-03-18T13:48:00.636Z,95491.74
2023-03-18T13:50:34.156Z,95494.70
2023-03-18T13:53:03.351Z,95497.52
2023-03-18T13:55:47.603Z,95494.39
2023-03-18T13:58:37.090Z,95489.80
2023-03-18T14:01:32.863Z,95485.48
2023-03-18T14:04:22.320Z,95480.27
2023-03-18T14:06:56.928Z,95482.40
2023-03-18T14:09:34.095Z,95477.08
2023-03-18T14:12:25.134Z,95473.52
2023-03-18T14:14:53.006Z,95475.52
2023-03-18T14:17:32.310Z,95475.49
2023-03-18T14:20:07.205Z,95479.08
2023-03-18T14:22:36.791Z,95484.23
2023-03-18T14:25:10.135Z,95485.13
2023-03-18T14:27:47.447Z,95485.61
2023-03-18T14:30:35.036Z,95488.34
2023-03-18T14:33:06.187Z,95487.19
2023-03-18T14:35:52.338Z,95487.67
2023-03-18T14:38:35.119Z,95485.26
2023-03-18T14:41:04.382Z,95481.45
2023-03-18T14:44:06.606Z,95479.78
2023-03-18T14:46:39.335Z,95479.65
2023-03-18T14:49:32.503Z,95479.88
2023-03-18T14:52:02.042Z,95481.23
2023-03-18T14:54:35.908Z,95493.42
2023-03-18T14:57:04.464Z,95485.83
2023-03-18T14:59:31.699Z,95486.00
2023-03-18T15:01:58.667Z,95490.75
2023-03-18T15:04:28.121Z,95485.70
2023-03-18T15:07:00.641Z,95486.00
2023-03-18T15:09:30.071Z,95488.88
2023-03-18T15:11:57.998Z,95493.59
2023-03-18T15:14:27.806Z,95489.67
2023-03-18T15:17:03.812Z,95492.81
2023-03-18T15:19:32.631Z,95491.65
2023-03-18T15:22:04.688Z,95493.74
2023-03-18T15:24:32.851Z,95503.08
2023-03-18T15:27:05.726Z,95501.45
2023-03-18T15:29:37.401Z,95508.56
2023-03-18T15:32:26.018Z,95509.45
2023-03-18T15:35:11.998Z,95518.31
2023-03-18T15:37:42.074Z,95519.50
2023-03-18T15:40:24.098Z,95526.50
2023-03-18T15:42:54.987Z,95527.45
2023-03-18T15:45:27.369Z,95533.88
2023-03-18T15:47:54.377Z,95535.40
2023-03-18T15:50:33.956Z,95537.05
2023-03-18T15:53:05.197Z,95540.27
2023-03-18T15:55:47.493Z,95547.73
2023-03-18T15:58:27.743Z,95550.67
2023-03-18T16:00:56.592Z,95552.05
2023-03-18T16:03:26.313Z,95552.45
2023-03-18T16:05:53.765Z,95553.59
2023-03-18T16:08:22.851Z,95558.32
2023-03-18T16:10:52.704Z,95563.27
2023-03-18T16:13:25.900Z,95565.08
2023-03-18T16:15:54.026Z,95564.61
2023-03-18T16:18:21.396Z,95568.52
2023-03-18T16:20:49.427Z,95573.02
2023-03-18T16:23:17.635Z,95572.69
2023-03-18T16:25:52.970Z,95571.71
2023-03-18T16:28:25.154Z,95576.81
2023-03-18T16:30:53.556Z,95574.55
2023-03-18T16:33:21.145Z,95573.46
2023-03-18T16:35:54.723Z,95576.45
2023-03-18T16:38:25.810Z,95582.59
2023-03-18T16:40:54.833Z,95585.31
2023-03-18T16:43:24.524Z,95590.43
2023-03-18T16:45:52.554Z,95596.47
2023-03-18T16:48:22.019Z,95599.17
2023-03-18T16:50:51.323Z,95596.41
2023-03-18T16:53:22.184Z,95597.64
2023-03-18T16:55:52.762Z,95598.71
2023-03-18T16:58:26.696Z,95602.19
2023-03-18T17:00:55.862Z,95606.27
2023-03-18T17:03:23.020Z,95609.00
2023-03-18T17:05:50.753Z,95617.13
2023-03-18T17:08:22.540Z,95613.46
2023-03-18T17:10:52.576Z,95618.23
2023-03-18T17:13:23.132Z,95621.33
2023-03-18T17:15:51.231Z,95622.59
2023-03-18T17:18:21.352Z,95625.79
2023-03-18T17:20:49.010Z,95626.27
2023-03-18T17:23:18.505Z,95628.52
2023-03-18T17:25:52.375Z,95633.89
2023-03-18T17:28:28.355Z,95639.17
2023-03-18T17:30:56.480Z,95640.16
2023-03-18T17:33:24.772Z,95640.09
2023-03-18T17:35:52.469Z,95646.38
2023-03-18T17:38:20.037Z,95647.27
2023-03-18T17:40:48.277Z,95648.89
2023-03-18T17:43:27.703Z,95651.91
2023-03-18T17:45:56.878Z,95659.64
2023-03-18T17:48:34.733Z,95662.02
2023-03-18T17:51:06.940Z,95667.83
2023-03-18T17:53:38.922Z,95670.84
2023-03-18T17:56:09.865Z,95673.86
2023-03-18T17:58:37.011Z,95676.42
2023-03-18T18:01:14.004Z,95676.66
2023-03-18T18:03:40.925Z,95678.10
2023-03-18T18:06:15.563Z,95683.85
2023-03-18T18:08:42.727Z,95686.36
2023-03-18T18:11:23.962Z,95687.27
2023-03-18T18:13:53.901Z,95686.30
2023-03-18T18:16:21.653Z,95689.04
2023-03-18T18:18:50.037Z,95695.57
2023-03-18T18:21:23.731Z,95701.73
2023-03-18T18:23:50.563Z,95704.83
2023-03-18T18:26:19.916Z,95708.50
2023-03-18T18:28:50.312Z,95712.48
2023-03-18T18:31:19.505Z,95714.80
2023-03-18T18:33:49.730Z,95718.21
2023-03-18T18:36:18.035Z,95724.60
2023-03-18T18:38:45.535Z,95726.73
2023-03-18T18:41:12.640Z,95732.70
2023-03-18T18:43:39.493Z,95731.34
2023-03-18T18:46:13.928Z,95733.77
2023-03-18T18:48:41.178Z,95735.69
2023-03-18T18:51:15.899Z,95737.67
2023-03-18T18:53:43.610Z,95737.41
2023-03-18T18:56:18.618Z,95738.98
2023-03-18T18:58:46.985Z,95738.33
2023-03-18T19:01:14.995Z,95739.89
2023-03-18T19:03:42.108Z,95740.92
2023-03-18T19:06:25.655Z,95740.16
2023-03-18T19:08:54.659Z,95742.27
2023-03-18T19:11:21.473Z,95746.37
2023-03-18T19:13:49.087Z,95746.99
2023-03-18T19:16:36.584Z,95750.96
2023-03-18T19:19:03.389Z,95748.73
2023-03-18T19:21:30.144Z,95746.48
2023-03-18T19:23:58.323Z,95751.08
2023-03-18T19:26:26.049Z,95747.49
2023-03-18T19:28:59.235Z,95749.71
2023-03-18T19:31:30.755Z,95747.86
2023-03-18T19:33:59.923Z,95747.92
2023-03-18T19:36:41.001Z,95748.13
2023-03-18T19:39:14.711Z,95744.27
2023-03-18T19:41:42.229Z,95744.32
2023-03-18T19:44:23.136Z,95743.95
2023-03-18T19:46:53.151Z,95740.71
2023-03-18T19:49:30.012Z,95739.75
2023-03-18T19:51:57.159Z,95742.01
2023-03-18T19:54:28.438Z,95746.02
2023-03-18T19:56:57.517Z,95749.13
2023-03-18T19:59:33.569Z,95748.92
2023-03-18T20:02:05.100Z,95745.73
2023-03-18T20:04:32.007Z,95750.16
2023-03-18T20:06:58.807Z,95751.48
2023-03-18T20:09:25.698Z,95750.12
2023-03-18T20:12:04.406Z,95751.97
2023-03-18T20:14:38.294Z,95751.33
2023-03-18T20:17:23.448Z,95751.30
2023-03-18T20:19:50.484Z,95750.11
2023-03-18T20:22:27.089Z,95753.39
2023-03-18T20:24:54.591Z,95750.98
2023-03-18T20:27:22.272Z,95754.63
2023-03-18T20:29:49.248Z,95754.28
2023-03-18T20:32:16.048Z,95754.21
2023-03-18T20:34:43.976Z,95752.37
2023-03-18T20:37:18.538Z,95753.75
2023-03-18T20:39:45.922Z,95752.20
2023-03-18T20:42:17.400Z,95747.30
2023-03-18T20:44:45.426Z,95751.42
2023-03-18T20:47:13.604Z,95746.45
2023-03-18T20:49:41.316Z,95743.55
2023-03-18T20:52:29.448Z,95744.83
2023-03-18T20:54:57.083Z,95738.68
2023-03-18T20:57:24.525Z,95734.36
2023-03-18T20:59:51.749Z,95734.05
2023-03-18T21:02:32.815Z,95732.88
2023-03-18T21:05:01.637Z,95727.85
2023-03-18T21:07:28.990Z,95722.08
2023-03-18T21:09:56.112Z,95719.92
2023-03-18T21:12:24.120Z,95715.57
2023-03-18T21:14:51.200Z,95714.00
2023-03-18T21:17:20.557Z,95709.95
2023-03-18T21:19:48.812Z,95711.79
2023-03-18T21:22:21.565Z,95712.05
2023-03-18T21:24:49.420Z,95712.33
2023-03-18T21:27:24.997Z,95712.75
2023-03-18T21:29:53.000Z,95710.83
2023-03-18T21:32:27.236Z,95712.34
2023-03-18T21:34:54.867Z,95715.58
2023-03-18T21:37:23.889Z,95715.86
2023-03-18T21:39:51.608Z,95715.92
2023-03-18T21:42:32.780Z,95722.52
2023-03-18T21:44:59.875Z,95723.32
2023-03-18T21:47:27.386Z,95725.98
2023-03-18T21:49:54.149Z,95723.20
2023-03-18T21:52:34.956Z,95724.55
2023-03-18T21:55:04.185Z,95725.92
2023-03-18T21:57:31.061Z,95725.31
2023-03-18T21:59:57.913Z,95726.98
2023-03-18T22:02:27.652Z,95727.26
2023-03-18T22:04:58.998Z,95733.07
2023-03-18T22:07:30.352Z,95735.12
2023-03-18T22:09:57.998Z,95736.00
2023-03-18T22:12:27.329Z,95735.63
2023-03-18T22:14:55.201Z,95736.52
2023-03-18T22:17:27.725Z,95740.38
2023-03-18T22:19:55.575Z,95740.96
2023-03-18T22:22:25.691Z,95737.13
2023-03-18T22:24:52.844Z,95737.83
2023-03-18T22:27:27.752Z,95738.18
2023-03-18T22:29:56.631Z,95735.66
2023-03-18T22:32:35.442Z,95737.19
2023-03-18T22:35:03.440Z,95737.55
2023-03-18T22:37:30.278Z,95735.54
2023-03-18T22:39:59.211Z,95737.32
2023-03-18T22:42:27.976Z,95735.77
2023-03-18T22:44:54.813Z,95731.77
2023-03-18T22:47:23.985Z,95735.02
2023-03-18T22:49:51.211Z,95735.30
2023-03-18T22:52:22.800Z,95733.19
2023-03-18T22:54:56.174Z,95733.46
2023-03-18T22:57:26.565Z,95733.09
2023-03-18T22:59:54.490Z,95732.23
2023-03-18T23:02:25.332Z,95737.48
2023-03-18T23:04:52.939Z,95739.59
2023-03-18T23:07:29.439Z,95741.20
2023-03-18T23:09:58.186Z,95741.71
2023-03-18T23:12:26.921Z,95738.40
2023-03-18T23:14:54.469Z,95735.31
2023-03-18T23:17:24.547Z,95735.64
2023-03-18T23:19:53.305Z,95736.92
2023-03-18T23:22:26.284Z,95735.71
2023-03-18T23:24:53.131Z,95736.91
2023-03-18T23:27:21.187Z,95737.23
2023-03-18T23:29:48.811Z,95737.83
2023-03-18T23:32:16.989Z,95741.12
2023-03-18T23:34:44.811Z,95741.54
2023-03-18T23:37:12.245Z,95739.33
2023-03-18T23:39:43.313Z,95739.91
2023-03-18T23:42:11.733Z,95739.63
2023-03-18T23:44:39.133Z,95739.25
2023-03-18T23:47:07.503Z,95741.05
2023-03-18T23:49:34.596Z,95739.48
2023-03-18T23:52:04.289Z,95735.71
2023-03-18T23:54:31.488Z,95734.41
2023-03-18T23:56:58.265Z,95736.02
2023-03-18T23:59:25.056Z,95735.38
